createdAt,value
2019-06-10T00:01:21.254Z,3.77
2019-06-10T00:03:51.428Z,4.27
2019-06-10T00:06:20.986Z,4.58
2019-06-10T00:08:50.617Z,4.50
2019-06-10T00:11:21.304Z,4.28
2019-06-10T00:13:50.695Z,4.67
2019-06-10T00:16:20.870Z,4.60
2019-06-10T00:18:50.993Z,4.37
2019-06-10T00:21:21.690Z,3.80
2019-06-10T00:23:51.858Z,3.77
2019-06-10T00:26:21.642Z,3.87
2019-06-10T00:28:51.362Z,3.77
2019-06-10T00:31:20.730Z,4.22
2019-06-10T00:33:51.766Z,4.30
2019-06-10T00:36:21.536Z,4.55
2019-06-10T00:38:51.819Z,4.03
2019-06-10T00:41:21.963Z,4.28
2019-06-10T00:43:51.742Z,4.25
2019-06-10T00:46:21.209Z,4.25
2019-06-10T00:48:50.895Z,4.22
2019-06-10T00:51:20.989Z,4.30
2019-06-10T00:53:51.438Z,4.12
2019-06-10T00:56:21.640Z,4.22
2019-06-10T00:58:51.442Z,4.22
2019-06-10T01:01:22.000Z,4.47
2019-06-10T01:03:50.963Z,4.17
2019-06-10T01:06:21.397Z,4.45
2019-06-10T01:08:51.228Z,3.87
2019-06-10T01:11:26.466Z,3.72
2019-06-10T01:13:50.857Z,3.52
2019-06-10T01:16:21.489Z,3.92
2019-06-10T01:18:52.637Z,4.03
2019-06-10T01:21:41.434Z,4.33
2019-06-10T01:24:11.639Z,3.55
2019-06-10T01:26:41.163Z,4.22
2019-06-10T01:29:10.292Z,4.00
2019-06-10T01:31:41.842Z,4.10
2019-06-10T01:34:11.995Z,4.42
2019-06-10T01:36:40.569Z,4.35
2019-06-10T01:39:11.606Z,3.80
2019-06-10T01:41:40.971Z,4.40
2019-06-10T01:44:11.552Z,3.98
2019-06-10T01:46:41.049Z,3.90
2019-06-10T01:49:11.742Z,4.00
2019-06-10T01:51:41.222Z,3.80
2019-06-10T01:54:11.965Z,3.98
2019-06-10T01:56:40.851Z,3.60
2019-06-10T01:59:12.260Z,3.52
2019-06-10T02:01:54.985Z,3.75
2019-06-10T02:04:23.413Z,4.08
2019-06-10T02:06:51.835Z,4.03
2019-06-10T02:09:23.043Z,3.67
2019-06-10T02:11:51.380Z,3.80
2019-06-10T02:14:23.931Z,3.52
2019-06-10T02:16:50.676Z,3.60
2019-06-10T02:19:22.745Z,3.50
2019-06-10T02:21:51.058Z,3.37
2019-06-10T02:24:22.042Z,3.60
2019-06-10T02:26:51.627Z,3.75
2019-06-10T02:29:22.196Z,3.37
2019-06-10T02:31:52.124Z,3.33
2019-06-10T02:34:26.883Z,3.80
2019-06-10T02:36:53.645Z,4.05
2019-06-10T02:39:28.033Z,4.03
2019-06-10T02:41:53.690Z,3.80
2019-06-10T02:44:31.883Z,3.87
2019-06-10T02:46:54.495Z,3.40
2019-06-10T02:49:42.800Z,3.72
2019-06-10T02:52:22.653Z,3.80
2019-06-10T02:54:48.531Z,3.83
2019-06-10T02:57:18.776Z,3.90
2019-06-10T02:59:47.314Z,3.55
2019-06-10T03:02:15.739Z,4.10
2019-06-10T03:04:44.149Z,4.12
2019-06-10T03:07:13.717Z,4.22
2019-06-10T03:09:42.821Z,3.87
2019-06-10T03:12:12.226Z,3.98
2019-06-10T03:14:42.264Z,4.08
2019-06-10T03:17:15.656Z,4.20
2019-06-10T03:19:50.342Z,3.80
2019-06-10T03:22:14.317Z,4.53
2019-06-10T03:24:42.740Z,4.13
2019-06-10T03:27:12.660Z,3.85
2019-06-10T03:29:42.149Z,4.10
2019-06-10T03:32:14.489Z,4.10
2019-06-10T03:34:45.906Z,4.60
2019-06-10T03:37:12.803Z,4.60
2019-06-10T03:39:42.728Z,4.45
2019-06-10T03:42:12.614Z,4.20
2019-06-10T03:44:43.074Z,4.53
2019-06-10T03:47:12.175Z,4.80
2019-06-10T03:49:49.984Z,4.58
2019-06-10T03:52:12.969Z,4.22
2019-06-10T03:54:43.845Z,4.20
2019-06-10T03:57:12.292Z,4.53
2019-06-10T03:59:42.228Z,4.55
2019-06-10T04:02:12.744Z,4.70
2019-06-10T04:04:42.841Z,4.33
2019-06-10T04:07:14.127Z,4.58
2019-06-10T04:09:42.497Z,5.17
2019-06-10T04:12:32.587Z,4.43
2019-06-10T04:15:02.893Z,4.30
2019-06-10T04:17:33.156Z,4.37
2019-06-10T04:20:09.276Z,4.45
2019-06-10T04:22:32.948Z,4.33
2019-06-10T04:25:03.083Z,4.25
2019-06-10T04:27:32.862Z,4.60
2019-06-10T04:30:03.263Z,5.10
2019-06-10T04:32:32.250Z,4.42
2019-06-10T04:35:02.271Z,4.62
2019-06-10T04:37:32.546Z,4.97
2019-06-10T04:40:02.885Z,4.50
2019-06-10T04:42:32.958Z,4.50
2019-06-10T04:45:03.163Z,4.22
2019-06-10T04:47:33.250Z,4.80
2019-06-10T04:50:03.141Z,4.78
2019-06-10T04:52:32.880Z,4.28
2019-06-10T04:55:04.457Z,4.40
2019-06-10T04:57:33.015Z,4.50
2019-06-10T05:00:04.084Z,3.98
2019-06-10T05:02:33.043Z,4.30
2019-06-10T05:05:02.926Z,4.30
2019-06-10T05:07:36.505Z,4.00
2019-06-10T05:10:03.278Z,3.95
2019-06-10T05:12:32.785Z,3.60
2019-06-10T05:15:03.568Z,3.70
2019-06-10T05:17:34.083Z,3.33
2019-06-10T05:20:02.548Z,3.40
2019-06-10T05:22:32.819Z,3.80
2019-06-10T05:25:02.519Z,3.60
2019-06-10T05:27:32.984Z,3.62
2019-06-10T05:30:02.258Z,3.42
2019-06-10T05:32:33.273Z,3.37
2019-06-10T05:35:03.510Z,3.10
2019-06-10T05:37:33.667Z,3.22
2019-06-10T05:40:02.224Z,3.47
2019-06-10T05:42:34.036Z,2.87
2019-06-10T05:45:03.162Z,3.20
2019-06-10T05:47:35.630Z,2.87
2019-06-10T05:50:03.266Z,2.87
2019-06-10T05:52:33.817Z,3.00
2019-06-10T05:55:02.940Z,3.30
2019-06-10T05:57:33.500Z,2.95
2019-06-10T06:00:10.728Z,3.00
2019-06-10T06:02:33.973Z,2.70
2019-06-10T06:05:02.656Z,2.60
2019-06-10T06:07:33.885Z,2.97
2019-06-10T06:10:02.476Z,2.70
2019-06-10T06:12:33.899Z,2.70
2019-06-10T06:15:02.428Z,2.52
2019-06-10T06:17:32.770Z,2.33
2019-06-10T06:20:02.723Z,2.60
2019-06-10T06:22:33.776Z,2.25
2019-06-10T06:25:03.705Z,1.95
2019-06-10T06:27:33.824Z,2.27
2019-06-10T06:30:06.989Z,2.20
2019-06-10T06:32:33.687Z,2.47
2019-06-10T06:35:02.276Z,2.50
2019-06-10T06:37:34.699Z,2.40
2019-06-10T06:40:02.790Z,2.40
2019-06-10T06:42:33.528Z,2.30
2019-06-10T06:45:03.038Z,2.72
2019-06-10T06:47:34.029Z,2.50
2019-06-10T06:50:02.685Z,2.87
2019-06-10T06:53:07.623Z,2.80
2019-06-10T06:55:23.258Z,2.58
2019-06-10T06:57:52.861Z,2.60
2019-06-10T07:00:43.122Z,2.47
2019-06-10T07:02:55.886Z,2.80
2019-06-10T07:05:24.297Z,2.70
2019-06-10T07:07:52.801Z,2.87
2019-06-10T07:10:24.261Z,2.70
2019-06-10T07:12:52.849Z,2.90
2019-06-10T07:15:26.289Z,2.75
2019-06-10T07:17:55.057Z,2.55
2019-06-10T07:20:23.507Z,2.70
2019-06-10T07:22:53.287Z,3.10
2019-06-10T07:25:22.966Z,2.75
2019-06-10T07:27:52.685Z,2.80
2019-06-10T07:30:22.970Z,2.60
2019-06-10T07:32:52.826Z,2.40
2019-06-10T07:35:22.186Z,2.65
2019-06-10T07:37:52.357Z,2.40
2019-06-10T07:40:22.278Z,2.10
2019-06-10T07:42:52.904Z,2.12
2019-06-10T07:45:22.114Z,1.85
2019-06-10T07:47:52.312Z,2.35
2019-06-10T07:50:22.721Z,1.95
2019-06-10T07:52:52.922Z,2.15
2019-06-10T07:55:22.168Z,2.10
2019-06-10T07:57:52.924Z,2.42
2019-06-10T08:00:22.737Z,2.27
2019-06-10T08:02:52.989Z,1.80
2019-06-10T08:05:23.411Z,2.20
2019-06-10T08:07:51.406Z,2.12
2019-06-10T08:10:19.927Z,2.17
2019-06-10T08:12:48.489Z,1.90
2019-06-10T08:15:16.938Z,2.00
2019-06-10T08:17:45.761Z,2.27
2019-06-10T08:20:18.861Z,1.92
2019-06-10T08:22:52.515Z,2.20
2019-06-10T08:25:17.449Z,2.00
2019-06-10T08:27:47.808Z,1.90
2019-06-10T08:30:23.191Z,2.02
2019-06-10T08:32:46.839Z,1.70
2019-06-10T08:35:16.707Z,1.75
2019-06-10T08:37:46.294Z,2.03
2019-06-10T08:40:15.526Z,1.70
2019-06-10T08:42:46.812Z,1.83
2019-06-10T08:45:14.076Z,1.90
2019-06-10T08:47:45.694Z,1.87
2019-06-10T08:50:13.008Z,1.53
2019-06-10T08:52:56.037Z,1.80
2019-06-10T08:55:33.335Z,1.70
2019-06-10T08:58:02.803Z,2.13
2019-06-10T09:00:33.231Z,1.63
2019-06-10T09:03:04.002Z,1.80
2019-06-10T09:05:32.523Z,1.57
2019-06-10T09:08:02.836Z,1.40
2019-06-10T09:10:33.790Z,1.53
2019-06-10T09:13:22.381Z,1.30
2019-06-10T09:16:10.529Z,2.03
2019-06-10T09:18:23.226Z,1.80
2019-06-10T09:20:55.305Z,1.57
2019-06-10T09:23:23.153Z,1.70
2019-06-10T09:25:54.457Z,1.70
2019-06-10T09:28:23.480Z,2.07
2019-06-10T09:30:58.493Z,1.60
2019-06-10T09:33:23.057Z,2.03
2019-06-10T09:35:54.848Z,2.40
2019-06-10T09:38:22.307Z,3.10
2019-06-10T09:40:59.217Z,2.20
2019-06-10T09:43:22.690Z,2.50
2019-06-10T09:45:55.427Z,2.27
2019-06-10T09:48:22.966Z,2.20
2019-06-10T09:50:57.951Z,2.30
2019-06-10T09:53:33.526Z,2.60
2019-06-10T09:55:55.416Z,2.00
2019-06-10T09:58:23.195Z,2.30
2019-06-10T10:00:57.580Z,2.20
2019-06-10T10:03:23.931Z,2.60
2019-06-10T10:05:59.286Z,2.13
2019-06-10T10:08:23.758Z,1.67
2019-06-10T10:10:58.488Z,2.37
2019-06-10T10:13:22.679Z,2.40
2019-06-10T10:15:53.875Z,1.90
2019-06-10T10:18:23.392Z,2.10
2019-06-10T10:20:56.530Z,2.30
2019-06-10T10:23:22.663Z,1.90
2019-06-10T10:25:56.592Z,2.60
2019-06-10T10:28:23.058Z,2.43
2019-06-10T10:30:57.221Z,2.20
2019-06-10T10:33:26.849Z,2.30
2019-06-10T10:36:13.269Z,2.30
2019-06-10T10:38:42.693Z,2.30
2019-06-10T10:41:13.407Z,2.17
2019-06-10T10:43:43.610Z,2.70
2019-06-10T10:46:13.850Z,2.10
2019-06-10T10:48:42.890Z,2.70
2019-06-10T10:51:13.022Z,2.67
2019-06-10T10:53:48.261Z,2.30
2019-06-10T10:56:14.307Z,2.43
2019-06-10T10:58:45.332Z,2.60
2019-06-10T11:01:15.151Z,2.80
2019-06-10T11:03:46.119Z,2.20
2019-06-10T11:06:14.882Z,2.60
2019-06-10T11:08:45.295Z,2.30
2019-06-10T11:11:13.909Z,2.50
2019-06-10T11:13:43.237Z,2.27
2019-06-10T11:16:11.955Z,2.13
2019-06-10T11:18:42.311Z,2.50
2019-06-10T11:21:13.028Z,2.17
2019-06-10T11:23:43.628Z,2.17
2019-06-10T11:26:12.965Z,2.80
2019-06-10T11:28:42.865Z,2.10
2019-06-10T11:31:13.947Z,2.70
2019-06-10T11:33:43.531Z,2.20
2019-06-10T11:36:31.366Z,2.33
2019-06-10T11:38:59.816Z,2.40
2019-06-10T11:41:28.526Z,2.03
2019-06-10T11:43:59.241Z,2.20
2019-06-10T11:46:27.166Z,2.80
2019-06-10T11:48:57.625Z,2.80
2019-06-10T11:51:25.715Z,2.33
2019-06-10T11:53:57.144Z,2.63
2019-06-10T11:56:24.603Z,2.40
2019-06-10T11:58:59.173Z,2.80
2019-06-10T12:01:28.383Z,2.07
2019-06-10T12:03:58.824Z,2.30
2019-06-10T12:06:46.282Z,2.33
2019-06-10T12:09:14.712Z,2.63
2019-06-10T12:11:43.894Z,2.27
2019-06-10T12:14:12.961Z,2.70
2019-06-10T12:19:12.775Z,2.40
2019-06-10T12:21:43.466Z,2.80
2019-06-10T12:24:12.726Z,3.30
2019-06-10T12:26:43.452Z,3.07
2019-06-10T12:29:12.382Z,2.90
2019-06-10T12:31:42.756Z,3.00
2019-06-10T12:34:12.489Z,3.47
2019-06-10T12:36:41.237Z,2.77
2019-06-10T12:39:10.730Z,2.83
2019-06-10T12:41:42.672Z,2.80
2019-06-10T12:44:12.096Z,2.70
2019-06-10T12:46:40.097Z,3.27
2019-06-10T12:49:08.882Z,2.50
2019-06-10T12:51:37.401Z,3.80
2019-06-10T12:54:06.552Z,3.20
2019-06-10T12:56:35.147Z,3.83
2019-06-10T12:59:09.650Z,3.93
2019-06-10T13:01:33.736Z,3.10
2019-06-10T13:04:05.421Z,3.60
2019-06-10T13:06:33.006Z,3.77
2019-06-10T13:09:23.428Z,4.90
2019-06-10T13:11:53.252Z,6.47
2019-06-10T13:14:22.042Z,7.10
2019-06-10T13:16:52.657Z,11.23
2019-06-10T13:19:23.168Z,7.70
2019-06-10T13:21:52.931Z,6.03
2019-06-10T13:24:22.506Z,4.97
2019-06-10T13:26:52.348Z,5.67
2019-06-10T13:29:21.003Z,5.10
2019-06-10T13:31:49.404Z,5.10
2019-06-10T13:34:22.129Z,5.20
2019-06-10T13:36:52.856Z,6.20
2019-06-10T13:39:22.305Z,4.77
2019-06-10T13:41:52.713Z,5.93
2019-06-10T13:44:22.814Z,5.33
2019-06-10T13:47:12.619Z,5.10
2019-06-10T13:49:42.692Z,5.20
2019-06-10T13:52:32.026Z,5.20
2019-06-10T13:55:01.299Z,4.83
2019-06-10T13:57:32.104Z,4.93
2019-06-10T14:00:02.731Z,4.90
2019-06-10T14:02:32.316Z,4.13
2019-06-10T14:05:03.536Z,4.20
2019-06-10T14:07:32.455Z,4.23
2019-06-10T14:10:04.003Z,4.13
2019-06-10T14:12:32.387Z,4.70
2019-06-10T14:15:04.117Z,4.47
2019-06-10T14:17:32.876Z,4.07
2019-06-10T14:20:01.753Z,4.67
2019-06-10T14:22:32.746Z,4.83
2019-06-10T14:25:02.781Z,5.20
2019-06-10T14:27:30.603Z,5.23
2019-06-10T14:29:59.057Z,4.47
2019-06-10T14:32:27.507Z,4.37
2019-06-10T14:34:55.909Z,4.23
2019-06-10T14:37:35.703Z,4.47
2019-06-10T14:39:54.470Z,4.97
2019-06-10T14:42:23.203Z,4.00
2019-06-10T14:44:52.644Z,5.00
2019-06-10T14:47:27.260Z,4.60
2019-06-10T14:49:55.685Z,4.90
2019-06-10T14:52:24.092Z,5.00
2019-06-10T14:54:53.269Z,4.90
2019-06-10T14:57:22.860Z,4.93
2019-06-10T14:59:53.209Z,5.50
2019-06-10T15:02:21.645Z,5.33
2019-06-10T15:04:53.008Z,5.90
2019-06-10T15:07:23.595Z,7.67
2019-06-10T15:09:52.591Z,7.47
2019-06-10T15:12:22.819Z,7.23
2019-06-10T15:14:52.100Z,7.23
2019-06-10T15:17:20.712Z,7.97
2019-06-10T15:19:49.121Z,8.03
2019-06-10T15:22:17.558Z,8.20
2019-06-10T15:24:45.980Z,8.20
2019-06-10T15:27:23.697Z,9.20
2019-06-10T15:29:44.556Z,8.50
2019-06-10T15:32:20.629Z,11.20
2019-06-10T15:34:43.118Z,13.73
2019-06-10T15:37:15.128Z,9.83
2019-06-10T15:39:42.379Z,5.13
2019-06-10T15:49:55.300Z,6.70
2019-06-10T15:52:25.124Z,6.53
2019-06-10T15:54:53.908Z,7.23
2019-06-10T15:57:34.858Z,8.20
2019-06-10T15:59:52.460Z,9.03
2019-06-10T16:02:24.983Z,10.13
2019-06-10T16:04:52.701Z,13.67
2019-06-10T16:07:25.288Z,15.70
2019-06-10T16:09:53.335Z,13.50
2019-06-10T16:12:26.591Z,16.47
2019-06-10T16:14:52.995Z,16.87
2019-06-10T16:17:21.668Z,17.57
2019-06-10T16:19:52.828Z,14.73
2019-06-10T16:22:22.271Z,14.27
2019-06-10T16:24:52.579Z,13.27
2019-06-10T16:27:23.024Z,12.47
2019-06-10T16:29:53.056Z,12.07
2019-06-10T16:32:23.618Z,14.50
2019-06-10T16:34:52.225Z,13.23
2019-06-10T16:37:23.425Z,12.73
2019-06-10T16:39:52.483Z,13.90
2019-06-10T16:42:25.418Z,13.30
2019-06-10T16:45:12.820Z,13.07
2019-06-10T16:47:43.084Z,14.10
2019-06-10T16:50:12.193Z,10.57
2019-06-10T16:52:43.130Z,11.10
2019-06-10T16:55:12.766Z,11.83
2019-06-10T16:57:41.057Z,11.20
2019-06-10T17:00:13.886Z,10.53
2019-06-10T17:02:42.532Z,11.47
2019-06-10T17:05:10.027Z,12.73
2019-06-10T17:07:38.700Z,12.57
2019-06-10T17:10:07.456Z,13.97
2019-06-10T17:12:35.879Z,15.03
2019-06-10T17:15:04.977Z,16.90
2019-06-10T17:17:52.736Z,18.60
2019-06-10T17:20:23.291Z,19.90
2019-06-10T17:22:52.442Z,22.37
2019-06-10T17:25:23.539Z,21.20
2019-06-10T17:27:52.700Z,17.43
2019-06-10T17:30:23.384Z,19.63
2019-06-10T17:32:53.312Z,20.53
2019-06-10T17:35:22.001Z,22.83
2019-06-10T17:37:52.315Z,21.03
2019-06-10T17:40:23.466Z,19.40
2019-06-10T17:42:53.267Z,19.03
2019-06-10T17:45:25.762Z,21.17
2019-06-10T17:47:52.500Z,22.50
2019-06-10T17:50:22.319Z,26.40
2019-06-10T17:52:53.400Z,27.10
2019-06-10T17:55:24.717Z,27.03
2019-06-10T17:57:51.712Z,24.33
2019-06-10T18:00:20.139Z,25.93
2019-06-10T18:02:48.562Z,28.27
2019-06-10T18:05:17.054Z,28.83
2019-06-10T18:07:45.482Z,22.80
2019-06-10T18:10:13.976Z,23.40
2019-06-10T18:12:42.441Z,19.93
2019-06-10T18:15:12.531Z,18.67
2019-06-10T18:17:42.579Z,18.10
2019-06-10T18:20:13.578Z,20.73
2019-06-10T18:22:41.608Z,20.33
2019-06-10T18:25:12.336Z,21.90
2019-06-10T18:27:40.664Z,22.23
2019-06-10T18:30:13.321Z,21.47
2019-06-10T18:32:39.307Z,19.27
2019-06-10T18:35:27.837Z,19.63
2019-06-10T18:37:56.369Z,20.03
2019-06-10T18:40:31.677Z,21.00
2019-06-10T18:42:59.967Z,18.40
2019-06-10T18:45:29.729Z,17.40
2019-06-10T18:47:58.276Z,17.83
2019-06-10T18:50:27.794Z,19.13
2019-06-10T18:52:58.680Z,18.27
2019-06-10T18:55:26.681Z,17.47
2019-06-10T18:57:55.341Z,17.77
2019-06-10T19:00:23.796Z,18.40
2019-06-10T19:03:08.770Z,18.03
2019-06-10T19:05:22.528Z,18.70
2019-06-10T19:07:52.919Z,18.33
2019-06-10T19:10:23.092Z,17.23
2019-06-10T19:12:53.134Z,18.20
2019-06-10T19:15:21.636Z,18.13
2019-06-10T19:17:50.076Z,16.50
2019-06-10T19:20:18.494Z,17.20
2019-06-10T19:22:47.497Z,17.47
2019-06-10T19:25:16.993Z,17.87
2019-06-10T19:27:45.406Z,16.90
2019-06-10T19:30:13.842Z,18.50
2019-06-10T19:32:44.232Z,20.07
2019-06-10T19:35:13.078Z,18.80
2019-06-10T19:37:42.366Z,20.83
2019-06-10T19:40:12.362Z,23.87
2019-06-10T19:42:43.383Z,24.67
2019-06-10T19:45:12.547Z,22.23
2019-06-10T19:47:45.284Z,26.13
2019-06-10T19:50:12.211Z,27.83
2019-06-10T19:52:43.660Z,27.80
2019-06-10T19:55:13.101Z,28.27
2019-06-10T19:57:41.527Z,30.50
2019-06-10T20:00:29.525Z,32.37
2019-06-10T20:02:58.210Z,35.67
2019-06-10T20:05:26.652Z,37.93
2019-06-10T20:07:55.089Z,39.80
2019-06-10T20:10:23.536Z,40.27
2019-06-10T20:12:53.710Z,41.43
2019-06-10T20:15:23.060Z,47.43
2019-06-10T20:17:52.566Z,49.30
2019-06-10T20:20:22.575Z,46.57
2019-06-10T20:22:53.308Z,48.93
2019-06-10T20:25:22.377Z,45.87
2019-06-10T20:27:52.418Z,43.93
2019-06-10T20:30:27.506Z,40.90
2019-06-10T20:32:52.804Z,41.30
2019-06-10T20:35:23.285Z,42.47
2019-06-10T20:37:53.842Z,41.80
2019-06-10T20:40:22.169Z,37.57
2019-06-10T20:42:50.610Z,37.83
2019-06-10T20:45:19.170Z,36.77
2019-06-10T20:47:47.994Z,40.10
2019-06-10T20:50:17.360Z,44.70
2019-06-10T20:52:47.202Z,46.00
2019-06-10T20:55:16.965Z,48.17
2019-06-10T20:57:54.918Z,52.50
2019-06-10T21:00:26.486Z,51.90
2019-06-10T21:02:55.001Z,53.13
2019-06-10T21:05:23.441Z,53.93
2019-06-10T21:07:51.912Z,55.27
2019-06-10T21:10:24.309Z,49.47
2019-06-10T21:12:52.737Z,52.13
2019-06-10T21:15:22.822Z,52.20
2019-06-10T21:17:51.469Z,51.43
2019-06-10T21:20:22.139Z,50.50
2019-06-10T21:22:51.432Z,50.40
2019-06-10T21:25:20.196Z,49.03
2019-06-10T21:27:49.714Z,51.77
2019-06-10T21:30:34.072Z,50.67
2019-06-10T21:32:50.854Z,55.53
2019-06-10T21:35:19.362Z,55.90
2019-06-10T21:37:48.352Z,55.13
2019-06-10T21:40:18.102Z,54.13
2019-06-10T21:42:46.512Z,53.70
2019-06-10T21:45:15.258Z,51.20
2019-06-10T21:47:44.475Z,43.40
2019-06-10T21:50:14.208Z,42.40
2019-06-10T21:52:44.628Z,44.10
2019-06-10T21:55:13.532Z,45.60
2019-06-10T21:57:42.995Z,46.93
2019-06-10T22:00:14.896Z,42.87
2019-06-10T22:02:45.135Z,41.40
2019-06-10T22:05:13.674Z,41.63
2019-06-10T22:08:03.184Z,41.80
2019-06-10T22:10:33.563Z,41.87
2019-06-10T22:13:03.217Z,42.80
2019-06-10T22:15:33.421Z,43.30
2019-06-10T22:18:02.314Z,43.27
2019-06-10T22:20:32.456Z,47.00
2019-06-10T22:23:02.627Z,50.77
2019-06-10T22:25:32.839Z,49.80
2019-06-10T22:28:02.764Z,49.40
2019-06-10T22:30:32.145Z,54.10
2019-06-10T22:33:03.148Z,54.30
2019-06-10T22:35:31.355Z,53.97
2019-06-10T22:37:59.769Z,58.00
2019-06-10T22:40:28.528Z,59.43
2019-06-10T22:42:56.948Z,57.97
2019-06-10T22:45:28.444Z,57.43
2019-06-10T22:47:56.951Z,56.70
2019-06-10T22:50:25.452Z,62.43
2019-06-10T22:52:57.043Z,60.30
2019-06-10T22:55:24.028Z,58.37
2019-06-10T22:57:57.318Z,60.53
2019-06-10T23:00:43.711Z,64.10
2019-06-10T23:03:13.045Z,62.17
2019-06-10T23:06:02.627Z,69.73
2019-06-10T23:08:33.267Z,70.60
2019-06-10T23:11:02.797Z,69.37
2019-06-10T23:13:31.481Z,69.03
2019-06-10T23:16:02.433Z,72.37
2019-06-10T23:18:31.996Z,72.27
2019-06-10T23:21:01.556Z,72.33
2019-06-10T23:23:32.466Z,75.03
2019-06-10T23:26:02.775Z,70.83
2019-06-10T23:28:32.729Z,74.53
2019-06-10T23:31:02.423Z,76.50
2019-06-10T23:33:32.385Z,75.80
2019-06-10T23:36:03.766Z,82.20
2019-06-10T23:38:32.900Z,90.97
2019-06-10T23:41:03.548Z,92.90
2019-06-10T23:43:33.001Z,96.90
2019-06-10T23:46:04.094Z,89.70
2019-06-10T23:48:32.970Z,92.07
2019-06-10T23:51:04.525Z,92.23
2019-06-10T23:53:32.862Z,89.43
2019-06-10T23:56:04.716Z,90.50
2019-06-10T23:58:32.887Z,88.43
